Nearby METAR Reports

 

KBED - Bedford, Massachusetts, USA
Distance from station: ENE 12mi, 20km
Updated: Sat, 04-Dec-2021 4:51pm EST
Few Clouds
Few Clouds
 Wind from S
Wind: S 6 mph , 9 km/h
Temperature: 36°F , 2°C
Wind Chill: 31°F , -1°C
Dew Point: 23°F , -5°C
Humidity: 60%
Barometer: 30.04 inHg , 1017.3 hPa
Clouds: Few Clouds
Visibility: 10 miles , 16 km
Cloud details: Few Clouds 5500 ft
2021/12/04 21:51 KBED 042151Z 18005KT 10SM FEW055 02/M05 A3004 RMK AO2 SLP190 T00171050
KFIT - Fitchburg, Massachusetts, USA
Distance from station: NW 15mi, 24km
Updated: Sat, 04-Dec-2021 4:52pm EST

 Wind from SSE
Wind: SSE 6 mph , 9 km/h
Temperature: 36°F , 2°C
Wind Chill: 31°F , -1°C
Dew Point: 21°F , -6°C
Humidity: 56%
Barometer: 30.03 inHg , 1016.9 hPa
Visibility: 10 miles , 16 km
2021/12/04 21:52 KFIT 042152Z AUTO 16005KT 10SM 02/M06 A3003 RMK AO2 SLP172 T00221056 $
 
KORH - Worcester, Massachusetts, USA
Distance from station: WSW 20mi, 32km
Updated: Sat, 04-Dec-2021 4:54pm EST
Clear
Clear
 Wind from SW
Wind: SW 9 mph , 15 km/h
Temperature: 32°F , 0°C
Wind Chill: 24°F , -4°C
Dew Point: 25°F , -4°C
Humidity: 75%
Barometer: 30.01 inHg , 1016.3 hPa
Clouds: Clear
Visibility: 10 miles , 16 km
2021/12/04 21:54 KORH 042154Z 23008KT 10SM CLR 00/M04 A3001 RMK AO2 SLP176 T00001044
KOWD - Norwood, Massachusetts, USA
Distance from station: SE 24mi, 39km
Updated: Sat, 04-Dec-2021 4:53pm EST
Clear
Clear
 Wind from SSW
Wind: SSW 5 mph , 7 km/h
Temperature: 37°F , 3°C
Wind Chill: 33°F , 1°C
Dew Point: 23°F , -5°C
Humidity: 56%
Barometer: 30.07 inHg , 1018.3 hPa
Clouds: Clear
Visibility: 10 miles , 16 km
2021/12/04 21:53 KOWD 042153Z 21004KT 10SM CLR 03/M05 A3007 RMK AO2 SLP183 T00281050
 
KMQE - East Milton, Massachusetts, USA
Distance from station: ESE 25mi, 40km
Updated: Thu, 01-Jul-2021 9:51am EDT
NOT Current

 Wind from WNW
Wind: WNW 9 mph , 15 km/h
Temperature: 75°F , 24°C
Dew Point: 70°F , 21°C
Humidity: 83%
Barometer: 29.86 inHg , 1011.2 hPa
2021/07/01 13:51 KMQE 011351Z AUTO 30008KT 24/21 A2986 RMK AO1 SLP116 T02440206
KASH - Nashua/Boire Fld, New Hampshire, USA
Distance from station: N 26mi, 42km
Updated: Sat, 04-Dec-2021 4:56pm EST
Mostly cloudy
Mostly cloudy
 Wind from varies
Wind: varies 3 mph , 6 km/h
Temperature: 37°F , 3°C
Dew Point: 25°F , -4°C
Humidity: 60%
Barometer: 30.02 inHg , 1016.6 hPa
Clouds: Mostly cloudy
Visibility: 10 miles , 16 km
Cloud details: Mostly cloudy 6000 ft
2021/12/04 21:56 KASH 042156Z VRB03KT 10SM BKN060 03/M04 A3002 RMK AO2 SLP172 T00281044
 
KBOS - Boston, Massachusetts, USA
Distance from station: E 26mi, 42km
Updated: Sat, 04-Dec-2021 4:54pm EST
Few Clouds
Few Clouds
 Wind from SW
Wind: SW 10 mph , 17 km/h
Temperature: 39°F , 4°C
Wind Chill: 32°F , 0°C
Dew Point: 23°F , -5°C
Humidity: 52%
Barometer: 30.07 inHg , 1018.3 hPa
Clouds: Few Clouds
Visibility: 10 miles , 16 km
Cloud details: Few Clouds 7000 ft
2021/12/04 21:54 KBOS 042154Z 23009KT 10SM FEW070 04/M05 A3007 RMK AO2 SLP181 T00391050
KLWM - Lawrence, Massachusetts, USA
Distance from station: NE 29mi, 47km
Updated: Sat, 04-Dec-2021 4:54pm EST
Clear
Clear
 Wind from S
Wind: S 5 mph , 7 km/h
Temperature: 37°F , 3°C
Wind Chill: 33°F , 1°C
Dew Point: 23°F , -5°C
Humidity: 56%
Barometer: 30.05 inHg , 1017.6 hPa
Clouds: Clear
Visibility: 10 miles , 16 km
2021/12/04 21:54 KLWM 042154Z 18004KT 10SM CLR 03/M05 A3005 RMK AO2 SLP176 T00331050
 
KBVY - Beverly, Massachusetts, USA
Distance from station: ENE 33mi, 54km
Updated: Sat, 04-Dec-2021 4:53pm EST
Clear
Clear
 Wind from SSW
Wind: SSW 6 mph , 9 km/h
Temperature: 36°F , 2°C
Wind Chill: 31°F , -1°C
Dew Point: 21°F , -6°C
Humidity: 56%
Barometer: 30.05 inHg , 1017.6 hPa
Clouds: Clear
Visibility: 10 miles , 16 km
2021/12/04 21:53 KBVY 042153Z 20005KT 10SM CLR 02/M06 A3005 RMK AO2 SLP173 T00171056
KSFZ - Pawtucket, Rhode Island, USA
Distance from station: S 34mi, 54km
Updated: Sat, 04-Dec-2021 4:56pm EST
Clear
Clear
 Wind from SSW
Wind: SSW 3 mph , 6 km/h
Temperature: 36°F , 2°C
Dew Point: 25°F , -4°C
Humidity: 65%
Barometer: 30.06 inHg , 1017.9 hPa
Clouds: Clear
Visibility: 10 miles , 16 km
2021/12/04 21:56 KSFZ 042156Z AUTO 21003KT 10SM CLR 02/M04 A3006 RMK AO2 SLP190 T00221044 FZRANO PNO $
 
KAFN - Jaffrey, New Hampshire, USA
Distance from station: NW 36mi, 59km
Updated: Sat, 04-Dec-2021 4:52pm EST
Clear
Clear
 Wind from SSW
Wind: SSW 5 mph , 7 km/h
Temperature: 34°F , 1°C
Wind Chill: 29°F , -2°C
Dew Point: 25°F , -4°C
Humidity: 70%
Barometer: 29.98 inHg , 1015.2 hPa
Clouds: Clear
Visibility: 10 miles , 16 km
2021/12/04 21:52 KAFN 042152Z AUTO 20004KT 10SM CLR 01/M04 A2998 RMK AO2 SLP171 T00111044
KMHT - Manchester, New Hampshire, USA
Distance from station: N 37mi, 59km
Updated: Sat, 04-Dec-2021 4:53pm EST
Few Clouds
Few Clouds
 Wind from S
Wind: S 7 mph , 11 km/h
Temperature: 37°F , 3°C
Wind Chill: 32°F , 0°C
Dew Point: 21°F , -6°C
Humidity: 52%
Barometer: 29.99 inHg , 1015.6 hPa
Clouds: Few Clouds
Visibility: 10 miles , 16 km
Cloud details: Few Clouds 7000 ft
2021/12/04 21:53 KMHT 042153Z 18006KT 10SM FEW070 03/M06 A2999 RMK AO2 SLP174 T00331056
 
KORE - Orange, Massachusetts, USA
Distance from station: WNW 40mi, 65km
Updated: Sat, 04-Dec-2021 4:52pm EST
Clear
Clear
 Wind from SSW
Wind: SSW 7 mph , 11 km/h
Temperature: 34°F , 1°C
Wind Chill: 28°F , -2°C
Dew Point: 25°F , -4°C
Humidity: 70%
Barometer: 30.02 inHg , 1016.6 hPa
Clouds: Clear
Visibility: 10 miles , 16 km
2021/12/04 21:52 KORE 042152Z AUTO 20006KT 10SM CLR 01/M04 A3002 RMK AO2 SLP172 T00111039
KTAN - Taunton, Massachusetts, USA
Distance from station: SE 45mi, 72km
Updated: Sat, 04-Dec-2021 4:52pm EST
Overcast
Overcast
 Wind from calm
Wind: Calm
Temperature: 39°F , 4°C
Dew Point: 27°F , -3°C
Humidity: 61%
Barometer: 30.08 inHg , 1018.6 hPa
Clouds: Overcast
Visibility: 10 miles , 16 km
Cloud details: Overcast 5000 ft
2021/12/04 21:52 KTAN 042152Z AUTO 00000KT 10SM OVC050 04/M03 A3008 RMK AO2 SLP185 T00441033
 
KPVD - Providence/Green, Rhode Island, USA
Distance from station: S 48mi, 77km
Updated: Sat, 04-Dec-2021 4:51pm EST
Overcast
Overcast
 Wind from SSW
Wind: SSW 5 mph , 7 km/h
Temperature: 43°F , 6°C
Wind Chill: 40°F , 4°C
Dew Point: 27°F , -3°C
Humidity: 53%
Barometer: 30.08 inHg , 1018.6 hPa
Clouds: Overcast
Visibility: 10 miles , 16 km
Cloud details: Overcast 5000 ft
2021/12/04 21:51 KPVD 042151Z 21004KT 10SM OVC050 06/M03 A3008 RMK AO2 SLP187 T00561028
KGHG - Marshfield, Massachusetts, USA
Distance from station: ESE 49mi, 79km
Updated: Sat, 04-Dec-2021 4:35pm EST
Clear
Clear
 Wind from WSW
Wind: WSW 3 mph , 6 km/h
Temperature: 36°F , 2°C
Dew Point: 25°F , -4°C
Humidity: 65%
Barometer: 30.08 inHg , 1018.6 hPa
Clouds: Clear
Visibility: 10 miles , 16 km
2021/12/04 21:35 KGHG 042135Z AUTO 24003KT 10SM CLR 02/M04 A3008 RMK AO2
 
KEEN - Keene/Dillant, New Hampshire, USA
Distance from station: NW 50mi, 81km
Updated: Sat, 04-Dec-2021 4:56pm EST
Few Clouds
Few Clouds
 Wind from SSE
Wind: SSE 6 mph , 9 km/h
Temperature: 36°F , 2°C
Wind Chill: 31°F , -1°C
Dew Point: 25°F , -4°C
Humidity: 65%
Barometer: 29.99 inHg , 1015.6 hPa
Clouds: Few Clouds
Visibility: 10 miles , 16 km
Cloud details: Few Clouds 8000 ft
2021/12/04 21:56 KEEN 042156Z AUTO 16005KT 10SM FEW080 02/M04 A2999 RMK AO2 SLP168 T00171039 FZRANO $